createdAt,value
2019-03-29T00:00:17.235Z,73.44
2019-03-29T00:01:17.227Z,73.44
2019-03-29T00:02:17.340Z,73.47
2019-03-29T00:03:17.201Z,73.64
2019-03-29T00:04:22.231Z,73.68
2019-03-29T00:05:17.179Z,73.54
2019-03-29T00:06:17.168Z,73.54
2019-03-29T00:07:17.179Z,73.54
2019-03-29T00:08:17.151Z,73.64
2019-03-29T00:09:17.156Z,73.54
2019-03-29T00:10:17.125Z,73.57
2019-03-29T00:11:17.111Z,73.68
2019-03-29T00:12:17.103Z,73.95
2019-03-29T00:13:17.090Z,74.05
2019-03-29T00:14:17.099Z,74.05
2019-03-29T00:15:22.092Z,73.74
2019-03-29T00:16:17.057Z,73.74
2019-03-29T00:17:17.963Z,73.64
2019-03-29T00:18:17.035Z,73.95
2019-03-29T00:19:17.034Z,73.57
2019-03-29T00:20:17.030Z,73.98
2019-03-29T00:21:16.999Z,73.85
2019-03-29T00:22:16.990Z,73.95
2019-03-29T00:23:16.982Z,73.85
2019-03-29T00:24:16.979Z,73.85
2019-03-29T00:25:16.964Z,74.15
2019-03-29T00:26:21.966Z,73.74
2019-03-29T00:27:16.934Z,73.74
2019-03-29T00:28:16.922Z,73.95
2019-03-29T00:29:16.925Z,73.78
2019-03-29T00:30:16.902Z,73.74
2019-03-29T00:31:16.887Z,73.64
2019-03-29T00:32:16.879Z,73.95
2019-03-29T00:33:16.872Z,73.85
2019-03-29T00:34:16.865Z,74.26
2019-03-29T00:35:16.868Z,74.15
2019-03-29T00:36:16.831Z,74.26
2019-03-29T00:37:21.847Z,74.36
2019-03-29T00:38:16.809Z,74.26
2019-03-29T00:39:16.814Z,74.36
2019-03-29T00:40:16.808Z,74.56
2019-03-29T00:41:16.776Z,74.26
2019-03-29T00:42:17.127Z,74.36
2019-03-29T00:43:16.749Z,74.26
2019-03-29T00:44:16.748Z,74.36
2019-03-29T00:45:16.729Z,74.05
2019-03-29T00:46:16.723Z,74.05
2019-03-29T00:47:16.716Z,74.36
2019-03-29T00:48:21.969Z,74.29
2019-03-29T00:49:16.696Z,74.08
2019-03-29T00:50:16.679Z,74.26
2019-03-29T00:51:16.663Z,74.26
2019-03-29T00:52:16.935Z,74.36
2019-03-29T00:53:16.640Z,74.26
2019-03-29T00:54:16.639Z,74.36
2019-03-29T00:55:16.620Z,74.36
2019-03-29T00:56:16.611Z,74.15
2019-03-29T00:57:16.596Z,74.36
2019-03-29T00:58:16.602Z,74.70
2019-03-29T00:59:21.605Z,74.60
2019-03-29T01:00:16.572Z,74.60
2019-03-29T01:01:16.559Z,74.90
2019-03-29T01:02:16.537Z,74.60
2019-03-29T01:03:16.534Z,74.80
2019-03-29T01:04:16.532Z,75.01
2019-03-29T01:05:16.504Z,75.01
2019-03-29T01:06:16.497Z,75.01
2019-03-29T01:07:16.485Z,75.01
2019-03-29T01:08:16.475Z,75.01
2019-03-29T01:09:16.483Z,74.60
2019-03-29T01:10:22.218Z,75.01
2019-03-29T01:11:16.442Z,74.70
2019-03-29T01:12:16.430Z,74.60
2019-03-29T01:13:16.417Z,75.01
2019-03-29T01:14:16.929Z,74.97
2019-03-29T01:15:16.410Z,75.01
2019-03-29T01:16:16.381Z,75.01
2019-03-29T01:17:16.372Z,75.11
2019-03-29T01:18:16.358Z,74.80
2019-03-29T01:19:16.363Z,74.70
2019-03-29T01:20:16.350Z,75.42
2019-03-29T01:21:21.354Z,75.52
2019-03-29T01:22:16.315Z,75.42
2019-03-29T01:23:16.311Z,75.04
2019-03-29T01:24:16.299Z,75.42
2019-03-29T01:25:16.280Z,75.21
2019-03-29T01:26:16.273Z,74.90
2019-03-29T01:27:16.260Z,74.84
2019-03-29T01:28:16.248Z,75.86
2019-03-29T01:29:16.244Z,75.86
2019-03-29T01:30:16.225Z,75.66
2019-03-29T01:31:16.215Z,75.66
2019-03-29T01:32:21.236Z,75.56
2019-03-29T01:33:16.190Z,75.45
2019-03-29T01:34:16.994Z,75.66
2019-03-29T01:35:16.166Z,76.10
2019-03-29T01:36:16.200Z,75.76
2019-03-29T01:37:16.155Z,75.76
2019-03-29T01:38:22.219Z,75.76
2019-03-29T01:39:17.249Z,76.17
2019-03-29T01:40:16.122Z,76.72
2019-03-29T01:41:16.108Z,76.17
2019-03-29T01:42:16.091Z,76.82
2019-03-29T01:43:21.106Z,76.62
2019-03-29T01:44:16.100Z,76.92
2019-03-29T01:45:16.057Z,77.13
2019-03-29T01:46:16.048Z,76.72
2019-03-29T01:47:16.031Z,76.72
2019-03-29T01:48:16.028Z,77.33
2019-03-29T01:49:16.246Z,77.03
2019-03-29T01:50:16.012Z,77.44
2019-03-29T01:51:15.987Z,77.54
2019-03-29T01:52:15.976Z,77.54
2019-03-29T01:53:15.966Z,77.33
2019-03-29T01:54:20.987Z,77.33
2019-03-29T01:55:15.984Z,77.44
2019-03-29T01:56:15.935Z,77.13
2019-03-29T01:57:15.922Z,77.03
2019-03-29T01:58:15.910Z,77.33
2019-03-29T01:59:16.977Z,77.23
2019-03-29T02:00:15.883Z,77.13
2019-03-29T02:01:15.888Z,77.13
2019-03-29T02:02:15.871Z,77.03
2019-03-29T02:03:15.853Z,77.33
2019-03-29T02:04:15.851Z,77.33
2019-03-29T02:05:20.858Z,77.03
2019-03-29T02:06:15.814Z,77.03
2019-03-29T02:07:15.812Z,77.23
2019-03-29T02:08:15.794Z,77.13
2019-03-29T02:09:15.792Z,77.23
2019-03-29T02:10:15.772Z,77.23
2019-03-29T02:11:15.768Z,77.13
2019-03-29T02:12:15.747Z,77.33
2019-03-29T02:13:15.742Z,77.33
2019-03-29T02:14:15.743Z,76.92
2019-03-29T02:15:15.726Z,77.03
2019-03-29T02:16:20.734Z,77.23
2019-03-29T02:17:15.693Z,77.03
2019-03-29T02:18:15.687Z,77.03
2019-03-29T02:19:15.670Z,77.03
2019-03-29T02:20:15.682Z,77.13
2019-03-29T02:21:16.925Z,77.23
2019-03-29T02:22:15.635Z,77.23
2019-03-29T02:23:15.624Z,77.33
2019-03-29T02:24:15.613Z,77.13
2019-03-29T02:25:16.144Z,77.23
2019-03-29T02:26:15.604Z,77.23
2019-03-29T02:27:20.607Z,77.74
2019-03-29T02:28:15.576Z,77.23
2019-03-29T02:29:15.556Z,77.23
2019-03-29T02:30:15.566Z,77.23
2019-03-29T02:31:15.552Z,77.54
2019-03-29T02:32:15.535Z,77.64
2019-03-29T02:33:15.511Z,77.54
2019-03-29T02:34:16.072Z,77.47
2019-03-29T02:35:15.503Z,77.84
2019-03-29T02:36:15.480Z,77.64
2019-03-29T02:37:15.493Z,77.98
2019-03-29T02:38:20.487Z,77.88
2019-03-29T02:39:15.453Z,77.88
2019-03-29T02:40:15.462Z,78.29
2019-03-29T02:41:15.425Z,78.16
2019-03-29T02:42:15.411Z,78.05
2019-03-29T02:43:15.406Z,78.19
2019-03-29T02:44:15.387Z,78.39
2019-03-29T02:45:15.385Z,78.05
2019-03-29T02:46:15.362Z,78.50
2019-03-29T02:47:15.353Z,78.19
2019-03-29T02:48:16.755Z,78.39
2019-03-29T02:49:20.381Z,78.60
2019-03-29T02:50:15.364Z,78.60
2019-03-29T02:51:15.314Z,79.32
2019-03-29T02:52:15.296Z,79.32
2019-03-29T02:53:15.283Z,79.15
2019-03-29T02:54:15.283Z,79.15
2019-03-29T02:55:15.283Z,79.15
2019-03-29T02:56:15.256Z,79.05
2019-03-29T02:57:15.242Z,79.36
2019-03-29T02:58:15.228Z,79.56
2019-03-29T02:59:15.221Z,79.25
2019-03-29T03:00:20.245Z,79.56
2019-03-29T03:01:15.206Z,79.46
2019-03-29T03:02:15.184Z,79.36
2019-03-29T03:03:15.173Z,79.05
2019-03-29T03:04:15.170Z,79.46
2019-03-29T03:05:15.169Z,79.15
2019-03-29T03:06:15.152Z,79.05
2019-03-29T03:07:15.127Z,79.05
2019-03-29T03:08:15.135Z,79.15
2019-03-29T03:09:15.130Z,79.15
2019-03-29T03:10:15.103Z,79.25
2019-03-29T03:11:20.110Z,79.25
2019-03-29T03:12:15.080Z,79.25
2019-03-29T03:13:15.064Z,79.25
2019-03-29T03:14:15.050Z,79.15
2019-03-29T03:15:15.051Z,79.15
2019-03-29T03:16:15.045Z,79.05
2019-03-29T03:17:15.018Z,79.36
2019-03-29T03:18:15.015Z,79.42
2019-03-29T03:19:14.990Z,79.56
2019-03-29T03:20:15.874Z,79.15
2019-03-29T03:21:14.974Z,79.46
2019-03-29T03:22:20.000Z,79.36
2019-03-29T03:23:14.967Z,79.32
2019-03-29T03:24:15.078Z,79.36
2019-03-29T03:25:14.934Z,79.11
2019-03-29T03:26:14.916Z,79.36
2019-03-29T03:27:14.906Z,79.46
2019-03-29T03:28:14.904Z,79.56
2019-03-29T03:29:14.885Z,79.46
2019-03-29T03:30:14.879Z,79.36
2019-03-29T03:31:14.909Z,79.66
2019-03-29T03:32:14.863Z,79.46
2019-03-29T03:33:19.869Z,79.46
2019-03-29T03:34:14.826Z,79.46
2019-03-29T03:35:14.846Z,79.56
2019-03-29T03:36:14.802Z,79.25
2019-03-29T03:37:14.789Z,79.46
2019-03-29T03:38:14.778Z,79.63
2019-03-29T03:39:30.545Z,79.56
2019-03-29T03:40:15.766Z,79.46
2019-03-29T03:41:14.747Z,79.15
2019-03-29T03:42:14.733Z,79.77
2019-03-29T03:43:14.722Z,79.73
2019-03-29T03:44:19.732Z,79.46
2019-03-29T03:45:14.712Z,79.46
2019-03-29T03:46:14.691Z,79.42
2019-03-29T03:47:14.676Z,79.25
2019-03-29T03:48:14.667Z,79.32
2019-03-29T03:49:14.653Z,79.42
2019-03-29T03:50:14.655Z,79.42
2019-03-29T03:51:14.631Z,79.11
2019-03-29T03:52:14.646Z,79.11
2019-03-29T03:53:14.611Z,78.91
2019-03-29T03:54:14.600Z,78.91
2019-03-29T03:55:19.620Z,79.01
2019-03-29T03:56:14.591Z,79.01
2019-03-29T03:57:14.562Z,79.42
2019-03-29T03:58:14.561Z,79.05
2019-03-29T03:59:14.547Z,79.01
2019-03-29T04:00:14.545Z,79.11
2019-03-29T04:01:14.557Z,79.05
2019-03-29T04:02:14.517Z,79.05
2019-03-29T04:03:14.503Z,79.25
2019-03-29T04:04:14.499Z,79.01
2019-03-29T04:05:14.485Z,79.36
2019-03-29T04:06:19.485Z,79.46
2019-03-29T04:07:14.467Z,79.15
2019-03-29T04:08:14.439Z,79.05
2019-03-29T04:09:14.477Z,79.46
2019-03-29T04:10:14.434Z,79.77
2019-03-29T04:11:14.411Z,79.91
2019-03-29T04:12:14.408Z,79.60
2019-03-29T04:13:14.384Z,79.80
2019-03-29T04:14:14.372Z,80.11
2019-03-29T04:15:14.373Z,80.11
2019-03-29T04:16:14.347Z,79.91
2019-03-29T04:17:19.365Z,80.01
2019-03-29T04:18:16.056Z,80.42
2019-03-29T04:19:14.315Z,80.32
2019-03-29T04:20:14.326Z,80.32
2019-03-29T04:21:14.292Z,80.11
2019-03-29T04:22:14.280Z,80.83
2019-03-29T04:23:14.270Z,80.73
2019-03-29T04:24:14.257Z,80.73
2019-03-29T04:25:14.259Z,80.63
2019-03-29T04:26:14.240Z,80.93
2019-03-29T04:27:14.262Z,80.83
2019-03-29T04:28:19.237Z,81.04
2019-03-29T04:29:14.206Z,80.73
2019-03-29T04:30:14.203Z,80.83
2019-03-29T04:31:14.263Z,80.73
2019-03-29T04:32:14.175Z,81.24
2019-03-29T04:33:14.176Z,81.38
2019-03-29T04:34:14.150Z,81.14
2019-03-29T04:35:14.161Z,81.48
2019-03-29T04:36:14.126Z,81.45
2019-03-29T04:37:14.111Z,81.38
2019-03-29T04:38:14.107Z,81.28
2019-03-29T04:39:19.114Z,81.55
2019-03-29T04:40:14.089Z,81.38
2019-03-29T04:41:14.067Z,81.48
2019-03-29T04:42:14.055Z,81.24
2019-03-29T04:43:14.056Z,81.48
2019-03-29T04:44:14.032Z,81.69
2019-03-29T04:45:14.036Z,81.69
2019-03-29T04:46:14.013Z,81.48
2019-03-29T04:47:13.999Z,80.97
2019-03-29T04:48:13.988Z,81.79
2019-03-29T04:49:13.981Z,81.07
2019-03-29T04:50:19.018Z,81.79
2019-03-29T04:51:13.956Z,81.90
2019-03-29T04:52:13.961Z,81.48
2019-03-29T04:53:13.931Z,81.69
2019-03-29T04:54:13.917Z,81.48
2019-03-29T04:55:13.937Z,81.59
2019-03-29T04:56:13.901Z,81.38
2019-03-29T04:57:13.885Z,81.48
2019-03-29T04:58:13.872Z,81.59
2019-03-29T04:59:13.866Z,81.90
2019-03-29T05:00:13.880Z,81.79
2019-03-29T05:01:18.872Z,81.79
2019-03-29T05:02:13.837Z,81.79
2019-03-29T05:03:13.821Z,81.69
2019-03-29T05:04:13.826Z,82.20
2019-03-29T05:05:13.813Z,81.90
2019-03-29T05:06:13.791Z,82.00
2019-03-29T05:07:13.788Z,82.14
2019-03-29T05:08:13.768Z,82.34
2019-03-29T05:09:13.750Z,82.51
2019-03-29T05:10:20.906Z,82.10
2019-03-29T05:11:14.736Z,82.31
2019-03-29T05:12:18.755Z,82.10
2019-03-29T05:13:13.707Z,82.41
2019-03-29T05:14:13.697Z,82.31
2019-03-29T05:15:13.707Z,82.62
2019-03-29T05:16:13.670Z,82.20
2019-03-29T05:17:13.667Z,82.10
2019-03-29T05:18:13.658Z,82.31
2019-03-29T05:19:13.649Z,82.31
2019-03-29T05:20:13.644Z,82.31
2019-03-29T05:21:13.685Z,82.10
2019-03-29T05:22:13.620Z,82.41
2019-03-29T05:23:18.615Z,82.10
2019-03-29T05:24:13.592Z,82.41
2019-03-29T05:25:13.604Z,82.20
2019-03-29T05:26:13.575Z,82.31
2019-03-29T05:27:13.549Z,82.10
2019-03-29T05:28:13.543Z,82.20
2019-03-29T05:29:13.533Z,82.31
2019-03-29T05:30:13.515Z,82.41
2019-03-29T05:31:13.521Z,82.14
2019-03-29T05:32:13.491Z,82.10
2019-03-29T05:33:13.480Z,82.10
2019-03-29T05:34:18.489Z,82.31
2019-03-29T05:35:13.458Z,82.41
2019-03-29T05:36:13.467Z,82.20
2019-03-29T05:37:13.434Z,82.20
2019-03-29T05:38:13.421Z,82.00
2019-03-29T05:39:13.414Z,82.41
2019-03-29T05:40:13.401Z,81.90
2019-03-29T05:41:13.411Z,81.59
2019-03-29T05:42:13.383Z,82.41
2019-03-29T05:43:13.367Z,82.31
2019-03-29T05:44:13.354Z,82.31
2019-03-29T05:45:18.371Z,82.41
2019-03-29T05:46:13.359Z,82.10
2019-03-29T05:47:13.349Z,82.20
2019-03-29T05:48:13.310Z,82.20
2019-03-29T05:49:13.305Z,82.00
2019-03-29T05:50:13.297Z,82.10
2019-03-29T05:51:13.285Z,81.55
2019-03-29T05:52:13.274Z,81.55
2019-03-29T05:53:13.253Z,81.76
2019-03-29T05:54:13.248Z,81.76
2019-03-29T05:55:13.230Z,81.45
2019-03-29T05:56:18.262Z,81.14
2019-03-29T05:57:13.211Z,81.34
2019-03-29T05:58:13.213Z,81.20
2019-03-29T05:59:13.189Z,81.14
2019-03-29T06:00:13.174Z,80.90
2019-03-29T06:01:13.179Z,80.93
2019-03-29T06:02:13.155Z,81.04
2019-03-29T06:03:13.143Z,80.52
2019-03-29T06:04:13.157Z,80.73
2019-03-29T06:05:13.117Z,80.38
2019-03-29T06:06:13.122Z,80.69
2019-03-29T06:07:18.119Z,80.18
2019-03-29T06:08:13.092Z,80.28
2019-03-29T06:09:13.076Z,80.38
2019-03-29T06:10:13.063Z,80.38
2019-03-29T06:11:13.066Z,80.49
2019-03-29T06:12:13.041Z,80.18
2019-03-29T06:13:13.027Z,79.77
2019-03-29T06:14:13.056Z,79.56
2019-03-29T06:15:13.007Z,79.56
2019-03-29T06:16:13.006Z,79.77
2019-03-29T06:17:12.985Z,79.83
2019-03-29T06:18:18.002Z,79.63
2019-03-29T06:19:12.970Z,79.63
2019-03-29T06:20:12.952Z,79.22
2019-03-29T06:21:12.950Z,79.42
2019-03-29T06:22:12.925Z,79.52
2019-03-29T06:23:12.915Z,79.32
2019-03-29T06:24:12.906Z,79.22
2019-03-29T06:25:12.916Z,79.11
2019-03-29T06:26:12.910Z,79.38
2019-03-29T06:27:12.876Z,79.08
2019-03-29T06:28:12.859Z,78.97
2019-03-29T06:29:17.870Z,79.28
2019-03-29T06:30:12.843Z,79.18
2019-03-29T06:31:12.838Z,79.18
2019-03-29T06:32:12.815Z,79.18
2019-03-29T06:33:12.802Z,79.28
2019-03-29T06:34:12.790Z,78.67
2019-03-29T06:35:12.798Z,78.56
2019-03-29T06:36:12.792Z,78.42
2019-03-29T06:37:12.764Z,78.16
2019-03-29T06:38:12.754Z,78.22
2019-03-29T06:39:12.734Z,78.22
2019-03-29T06:40:17.753Z,78.32
2019-03-29T06:41:12.727Z,77.81
2019-03-29T06:42:12.702Z,77.57
2019-03-29T06:43:12.696Z,77.77
2019-03-29T06:44:12.676Z,77.47
2019-03-29T06:45:12.701Z,77.16
2019-03-29T06:46:12.681Z,76.95
2019-03-29T06:47:12.644Z,77.16
2019-03-29T06:48:12.633Z,77.06
2019-03-29T06:49:12.619Z,77.02
2019-03-29T06:50:14.101Z,77.33
2019-03-29T06:51:17.643Z,77.23
2019-03-29T06:52:12.604Z,76.92
2019-03-29T06:53:12.577Z,76.92
2019-03-29T06:54:12.564Z,76.92
2019-03-29T06:55:12.555Z,76.81
2019-03-29T06:56:12.553Z,76.31
2019-03-29T06:57:12.541Z,75.99
2019-03-29T06:58:12.519Z,76.31
2019-03-29T06:59:12.508Z,75.59
2019-03-29T07:00:12.498Z,75.86
2019-03-29T07:01:12.503Z,75.45
2019-03-29T07:02:17.497Z,75.14
2019-03-29T07:03:12.482Z,75.82
2019-03-29T07:04:12.456Z,75.72
2019-03-29T07:05:12.470Z,75.86
2019-03-29T07:06:12.443Z,75.10
2019-03-29T07:07:12.424Z,74.69
2019-03-29T07:08:12.405Z,75.01
2019-03-29T07:09:12.397Z,74.56
2019-03-29T07:10:12.395Z,74.46
2019-03-29T07:11:17.627Z,74.46
2019-03-29T07:12:13.399Z,74.87
2019-03-29T07:13:17.379Z,74.05
2019-03-29T07:14:12.340Z,74.26
2019-03-29T07:15:12.337Z,73.71
2019-03-29T07:16:12.330Z,73.64
2019-03-29T07:17:12.309Z,73.74
2019-03-29T07:18:12.302Z,73.40
2019-03-29T07:19:12.282Z,73.27
2019-03-29T07:20:12.270Z,72.52
2019-03-29T07:21:21.327Z,71.36
2019-03-29T07:22:13.246Z,69.83
2019-03-29T07:23:12.242Z,66.38
2019-03-29T07:24:17.248Z,64.38
2019-03-29T07:25:12.216Z,63.87
2019-03-29T07:26:12.222Z,65.22
2019-03-29T07:27:12.192Z,66.10
2019-03-29T07:28:12.188Z,66.30
2019-03-29T07:29:12.177Z,67.15
2019-03-29T07:30:12.165Z,66.97
2019-03-29T07:31:12.160Z,67.90
2019-03-29T07:32:12.141Z,68.23
2019-03-29T07:33:12.125Z,67.93
2019-03-29T07:34:12.112Z,67.82
2019-03-29T07:35:17.123Z,68.23
2019-03-29T07:36:12.099Z,68.23
2019-03-29T07:37:12.079Z,67.99
2019-03-29T07:38:12.071Z,67.29
2019-03-29T07:39:12.060Z,67.79
2019-03-29T07:40:12.046Z,66.50
2019-03-29T07:41:12.038Z,65.22
2019-03-29T07:42:12.032Z,63.33
2019-03-29T07:43:12.017Z,62.70
2019-03-29T07:44:12.002Z,61.59
2019-03-29T07:45:12.006Z,60.01
2019-03-29T07:46:17.001Z,58.84
2019-03-29T07:47:11.982Z,57.44
2019-03-29T07:48:11.953Z,55.69
2019-03-29T07:49:11.942Z,54.76
2019-03-29T07:50:11.939Z,54.71
2019-03-29T07:51:11.956Z,52.84
2019-03-29T07:52:11.909Z,51.00
2019-03-29T07:53:11.913Z,51.18
2019-03-29T07:54:11.889Z,50.35
2019-03-29T07:55:11.875Z,49.73
2019-03-29T07:56:11.868Z,49.10
2019-03-29T07:57:16.875Z,49.04
2019-03-29T07:58:11.848Z,48.17
2019-03-29T07:59:11.835Z,47.97
2019-03-29T08:00:11.817Z,48.17
2019-03-29T08:01:11.809Z,48.29
2019-03-29T08:02:11.796Z,48.11
2019-03-29T08:03:11.785Z,48.14
2019-03-29T08:04:11.780Z,48.52
2019-03-29T08:05:11.773Z,48.19
2019-03-29T08:06:12.104Z,48.01
2019-03-29T08:07:11.747Z,49.65
2019-03-29T08:08:23.815Z,49.07
2019-03-29T08:09:22.387Z,49.65
2019-03-29T08:10:24.175Z,49.47
2019-03-29T08:11:25.429Z,49.12
2019-03-29T08:12:12.685Z,48.29
2019-03-29T08:13:11.692Z,47.64
2019-03-29T08:14:14.778Z,47.04
2019-03-29T08:15:11.654Z,47.04
2019-03-29T08:16:11.641Z,46.29
2019-03-29T08:17:11.629Z,45.09
2019-03-29T08:18:11.623Z,46.22
2019-03-29T08:19:16.626Z,46.51
2019-03-29T08:20:38.182Z,45.17
2019-03-29T08:21:12.611Z,44.84
2019-03-29T08:22:11.569Z,45.26
2019-03-29T08:23:11.565Z,45.06
2019-03-29T08:24:11.557Z,45.81
2019-03-29T08:25:11.540Z,47.26
2019-03-29T08:26:11.535Z,48.32
2019-03-29T08:27:11.520Z,48.44
2019-03-29T08:28:11.500Z,49.35
2019-03-29T08:29:11.494Z,47.81
2019-03-29T08:30:16.502Z,47.77
2019-03-29T08:31:11.467Z,47.62
2019-03-29T08:32:11.459Z,46.69
2019-03-29T08:33:11.450Z,45.87
2019-03-29T08:34:11.433Z,46.84
2019-03-29T08:35:11.426Z,48.19
2019-03-29T08:36:11.415Z,49.19
2019-03-29T08:37:11.401Z,51.33
2019-03-29T08:38:11.407Z,49.90
2019-03-29T08:39:11.377Z,50.10
2019-03-29T08:40:11.365Z,50.93
2019-03-29T08:41:16.387Z,50.17
2019-03-29T08:42:11.342Z,49.15
2019-03-29T08:43:11.345Z,48.11
2019-03-29T08:44:12.001Z,48.72
2019-03-29T08:45:11.311Z,48.72
2019-03-29T08:46:11.304Z,48.39
2019-03-29T08:47:11.290Z,47.74
2019-03-29T08:48:11.284Z,47.44
2019-03-29T08:49:11.280Z,47.36
2019-03-29T08:50:11.256Z,46.72
2019-03-29T08:51:11.243Z,46.49
2019-03-29T08:52:16.258Z,45.26
2019-03-29T08:53:11.224Z,45.87
2019-03-29T08:54:11.210Z,46.31
2019-03-29T08:55:11.202Z,46.84
2019-03-29T08:56:11.197Z,47.86
2019-03-29T08:57:11.182Z,47.51
2019-03-29T08:58:11.166Z,48.21
2019-03-29T08:59:11.178Z,47.66
2019-03-29T09:00:11.149Z,46.94
2019-03-29T09:01:11.133Z,46.92
2019-03-29T09:02:11.127Z,46.11
2019-03-29T09:03:16.135Z,46.01
2019-03-29T09:04:11.098Z,46.94
2019-03-29T09:05:11.089Z,46.73
2019-03-29T09:06:11.085Z,46.84
2019-03-29T09:07:11.069Z,47.36
2019-03-29T09:08:11.064Z,47.36
2019-03-29T09:09:12.131Z,48.24
2019-03-29T09:10:11.033Z,48.99
2019-03-29T09:11:11.022Z,49.41
2019-03-29T09:12:14.592Z,49.09
2019-03-29T09:13:10.997Z,48.16
2019-03-29T09:14:16.011Z,48.18
2019-03-29T09:15:10.976Z,48.58
2019-03-29T09:16:10.965Z,48.14
2019-03-29T09:17:10.957Z,48.14
2019-03-29T09:18:10.957Z,47.86
2019-03-29T09:19:10.930Z,48.58
2019-03-29T09:20:10.920Z,48.71
2019-03-29T09:21:10.931Z,49.54
2019-03-29T09:22:10.914Z,49.21
2019-03-29T09:23:10.945Z,49.62
2019-03-29T09:24:22.010Z,47.78
2019-03-29T09:25:16.907Z,48.18
2019-03-29T09:26:10.856Z,48.28
2019-03-29T09:27:10.854Z,48.06
2019-03-29T09:28:10.855Z,48.16
2019-03-29T09:29:10.841Z,48.16
2019-03-29T09:30:10.843Z,47.31
2019-03-29T09:31:10.798Z,47.25
2019-03-29T09:32:10.826Z,46.69
2019-03-29T09:33:10.773Z,47.98
2019-03-29T09:34:10.769Z,46.73
2019-03-29T09:35:10.836Z,47.03
2019-03-29T09:36:15.765Z,45.78
2019-03-29T09:37:10.748Z,45.13
2019-03-29T09:38:10.716Z,44.18
2019-03-29T09:39:10.704Z,44.10
2019-03-29T09:40:13.756Z,44.83
2019-03-29T09:41:10.689Z,45.03
2019-03-29T09:42:10.679Z,44.12
2019-03-29T09:43:10.659Z,43.82
2019-03-29T09:44:10.688Z,43.14
2019-03-29T09:45:10.640Z,43.14
2019-03-29T09:46:10.628Z,44.12
2019-03-29T09:47:15.645Z,43.72
2019-03-29T09:48:10.613Z,42.58
2019-03-29T09:49:10.593Z,43.80
2019-03-29T09:50:10.924Z,43.74
2019-03-29T09:51:10.573Z,46.45
2019-03-29T09:52:10.571Z,47.07
2019-03-29T09:53:10.555Z,46.73
2019-03-29T09:54:10.538Z,45.62
2019-03-29T09:55:10.536Z,46.87
2019-03-29T09:56:10.515Z,47.02
2019-03-29T09:57:15.047Z,47.92
2019-03-29T09:58:16.989Z,47.92
2019-03-29T09:59:10.489Z,46.59
2019-03-29T10:00:19.339Z,46.69
2019-03-29T10:01:11.492Z,46.69
2019-03-29T10:02:10.455Z,47.95
2019-03-29T10:03:10.459Z,48.68
2019-03-29T10:04:10.437Z,48.07
2019-03-29T10:05:10.415Z,47.85
2019-03-29T10:06:10.403Z,48.35
2019-03-29T10:07:10.405Z,48.55
2019-03-29T10:08:10.382Z,47.62
2019-03-29T10:09:15.393Z,48.05
2019-03-29T10:10:10.362Z,48.55
2019-03-29T10:11:10.351Z,48.27
2019-03-29T10:12:10.338Z,49.08
2019-03-29T10:13:10.324Z,48.88
2019-03-29T10:14:10.314Z,48.68
2019-03-29T10:15:10.303Z,49.21
2019-03-29T10:16:10.301Z,49.22
2019-03-29T10:17:10.289Z,50.14
2019-03-29T10:18:10.268Z,49.43
2019-03-29T10:19:10.255Z,50.04
2019-03-29T10:20:15.268Z,48.39
2019-03-29T10:21:10.238Z,49.71
2019-03-29T10:22:10.239Z,49.81
2019-03-29T10:23:10.212Z,50.34
2019-03-29T10:24:10.238Z,50.42
2019-03-29T10:25:19.361Z,49.46
2019-03-29T10:26:11.181Z,49.16
2019-03-29T10:27:10.169Z,48.85
2019-03-29T10:28:10.155Z,48.27
2019-03-29T10:29:10.154Z,48.39
2019-03-29T10:30:10.136Z,48.78
2019-03-29T10:31:15.152Z,48.85
2019-03-29T10:32:10.116Z,48.65
2019-03-29T10:33:10.100Z,48.78
2019-03-29T10:34:10.091Z,48.98
2019-03-29T10:35:10.094Z,48.90
2019-03-29T10:36:10.064Z,47.89
2019-03-29T10:37:10.058Z,47.74
2019-03-29T10:38:10.043Z,47.60
2019-03-29T10:39:10.040Z,46.77
2019-03-29T10:40:10.029Z,46.09
2019-03-29T10:41:10.012Z,46.84
2019-03-29T10:42:15.021Z,47.12
2019-03-29T10:43:09.990Z,46.71
2019-03-29T10:44:09.976Z,46.73
2019-03-29T10:45:09.961Z,47.14
2019-03-29T10:46:09.952Z,46.94
2019-03-29T10:47:09.941Z,46.73
2019-03-29T10:48:09.930Z,48.07
2019-03-29T10:49:09.917Z,47.47
2019-03-29T10:50:09.909Z,46.51
2019-03-29T10:51:09.906Z,45.90
2019-03-29T10:52:09.924Z,46.11
2019-03-29T10:53:14.923Z,45.90
2019-03-29T10:54:09.861Z,45.73
2019-03-29T10:55:09.854Z,45.48
2019-03-29T10:56:09.837Z,46.09
2019-03-29T10:57:09.830Z,45.70
2019-03-29T10:58:10.165Z,45.62
2019-03-29T10:59:09.804Z,45.75
2019-03-29T11:00:09.793Z,46.36
2019-03-29T11:01:09.778Z,45.75
2019-03-29T11:02:09.781Z,47.08
2019-03-29T11:03:09.758Z,46.45
2019-03-29T11:04:14.783Z,45.40
2019-03-29T11:05:09.733Z,44.05
2019-03-29T11:06:09.724Z,44.47
2019-03-29T11:07:09.714Z,44.98
2019-03-29T11:08:11.770Z,44.15
2019-03-29T11:09:09.688Z,44.65
2019-03-29T11:10:09.685Z,44.15
2019-03-29T11:11:09.673Z,44.31
2019-03-29T11:12:09.678Z,43.60
2019-03-29T11:13:13.117Z,43.02
2019-03-29T11:14:09.650Z,44.25
2019-03-29T11:15:14.643Z,43.62
2019-03-29T11:16:09.610Z,43.74
2019-03-29T11:17:09.620Z,43.42
2019-03-29T11:18:09.661Z,42.40
2019-03-29T11:19:09.591Z,42.15
2019-03-29T11:20:09.588Z,41.43
2019-03-29T11:21:09.555Z,40.62
2019-03-29T11:22:09.553Z,41.13
2019-03-29T11:23:09.550Z,42.05
2019-03-29T11:24:09.646Z,41.37
2019-03-29T11:25:09.519Z,42.60
2019-03-29T11:26:14.520Z,43.04
2019-03-29T11:27:09.500Z,43.34
2019-03-29T11:28:09.477Z,43.77
2019-03-29T11:29:09.476Z,43.66
2019-03-29T11:30:09.459Z,43.85
2019-03-29T11:31:09.464Z,43.22
2019-03-29T11:32:09.450Z,42.80
2019-03-29T11:33:09.418Z,42.60
2019-03-29T11:34:09.409Z,43.14
2019-03-29T11:35:09.403Z,42.19
2019-03-29T11:36:09.399Z,41.37
2019-03-29T11:37:14.418Z,41.35
2019-03-29T11:38:09.362Z,40.84
2019-03-29T11:39:09.352Z,41.13
2019-03-29T11:40:09.341Z,40.50
2019-03-29T11:41:09.332Z,41.09
2019-03-29T11:42:09.362Z,40.79
2019-03-29T11:43:09.344Z,40.41
2019-03-29T11:44:09.294Z,39.86
2019-03-29T11:45:09.283Z,38.96
2019-03-29T11:46:09.277Z,40.30
2019-03-29T11:47:09.278Z,41.39
2019-03-29T11:48:14.274Z,43.37
2019-03-29T11:49:09.257Z,43.24
2019-03-29T11:50:09.224Z,42.84
2019-03-29T11:51:19.394Z,43.24
2019-03-29T11:52:10.216Z,43.34
2019-03-29T11:53:09.220Z,42.74
2019-03-29T11:54:09.222Z,43.14
2019-03-29T11:55:09.221Z,43.37
2019-03-29T11:56:09.181Z,43.34
2019-03-29T11:57:09.166Z,42.74
2019-03-29T11:58:09.174Z,43.24
2019-03-29T11:59:14.148Z,43.42
2019-03-29T12:00:09.127Z,43.32
2019-03-29T12:01:09.108Z,42.72
2019-03-29T12:02:09.094Z,42.80
2019-03-29T12:03:09.827Z,43.44
2019-03-29T12:04:09.086Z,43.22
2019-03-29T12:05:09.097Z,43.12
2019-03-29T12:06:09.067Z,42.70
2019-03-29T12:07:09.077Z,42.50
2019-03-29T12:08:09.488Z,41.85
2019-03-29T12:09:09.018Z,40.48
2019-03-29T12:10:14.029Z,40.28
2019-03-29T12:11:09.029Z,40.92
2019-03-29T12:12:08.995Z,40.69
2019-03-29T12:13:08.993Z,41.39
2019-03-29T12:14:08.973Z,41.03
2019-03-29T12:15:08.954Z,41.55
2019-03-29T12:16:08.940Z,41.85
2019-03-29T12:17:08.930Z,40.79
2019-03-29T12:18:09.001Z,40.99
2019-03-29T12:19:08.901Z,41.31
2019-03-29T12:20:08.906Z,41.33
2019-03-29T12:21:13.911Z,41.85
2019-03-29T12:22:08.867Z,41.87
2019-03-29T12:23:08.879Z,42.98
2019-03-29T12:24:08.855Z,42.35
2019-03-29T12:25:08.835Z,41.13
2019-03-29T12:26:08.832Z,39.53
2019-03-29T12:27:08.813Z,38.70
2019-03-29T12:28:08.813Z,39.01
2019-03-29T12:29:08.791Z,39.14
2019-03-29T12:30:08.784Z,40.08
2019-03-29T12:31:08.775Z,40.70
2019-03-29T12:32:13.779Z,39.88
2019-03-29T12:33:08.764Z,38.82
2019-03-29T12:34:08.770Z,38.92
2019-03-29T12:35:10.210Z,37.87
2019-03-29T12:36:08.714Z,37.77
2019-03-29T12:37:08.710Z,39.45
2019-03-29T12:38:08.715Z,39.48
2019-03-29T12:39:08.691Z,40.08
2019-03-29T12:40:08.674Z,38.94
2019-03-29T12:41:08.656Z,39.23
2019-03-29T12:42:08.648Z,37.50
2019-03-29T12:43:13.673Z,38.15
2019-03-29T12:44:08.631Z,36.63
2019-03-29T12:45:08.616Z,36.58
2019-03-29T12:46:08.603Z,36.18
2019-03-29T12:47:08.597Z,34.75
2019-03-29T12:48:08.599Z,34.94
2019-03-29T12:49:08.567Z,35.35
2019-03-29T12:50:08.560Z,35.24
2019-03-29T12:51:08.544Z,34.71
2019-03-29T12:52:08.533Z,33.91